sensor_id;sensor_type;location;lat;lon;timestamp;P1;durP1;ratioP1;P2;durP2;ratioP2
25479;SDS011;13393;49.378;8.686;2023-04-03T00:02:18;2.35;;;2.03;;
25479;SDS011;13393;49.378;8.686;2023-04-03T00:04:44;3.08;;;1.83;;
25479;SDS011;13393;49.378;8.686;2023-04-03T00:07:11;4.68;;;2.15;;
25479;SDS011;13393;49.378;8.686;2023-04-03T00:09:37;4.22;;;2.50;;
25479;SDS011;13393;49.378;8.686;2023-04-03T00:12:04;4.00;;;2.08;;
25479;SDS011;13393;49.378;8.686;2023-04-03T00:14:30;3.08;;;2.13;;
25479;SDS011;13393;49.378;8.686;2023-04-03T00:16:58;4.93;;;1.80;;
25479;SDS011;13393;49.378;8.686;2023-04-03T00:19:24;4.20;;;2.05;;
25479;SDS011;13393;49.378;8.686;2023-04-03T00:21:51;2.38;;;1.95;;
25479;SDS011;13393;49.378;8.686;2023-04-03T00:24:18;2.78;;;1.83;;
25479;SDS011;13393;49.378;8.686;2023-04-03T00:26:44;4.45;;;1.80;;
25479;SDS011;13393;49.378;8.686;2023-04-03T00:29:11;2.05;;;1.85;;
25479;SDS011;13393;49.378;8.686;2023-04-03T00:31:37;3.60;;;2.08;;
25479;SDS011;13393;49.378;8.686;2023-04-03T00:34:05;3.42;;;1.80;;
25479;SDS011;13393;49.378;8.686;2023-04-03T00:36:31;2.28;;;1.88;;
25479;SDS011;13393;49.378;8.686;2023-04-03T00:38:57;3.85;;;1.80;;
25479;SDS011;13393;49.378;8.686;2023-04-03T00:41:24;4.63;;;2.10;;
25479;SDS011;13393;49.378;8.686;2023-04-03T00:43:50;2.08;;;1.75;;
25479;SDS011;13393;49.378;8.686;2023-04-03T00:46:17;3.05;;;2.08;;
25479;SDS011;13393;49.378;8.686;2023-04-03T00:48:44;3.50;;;1.90;;
25479;SDS011;13393;49.378;8.686;2023-04-03T00:51:12;5.15;;;1.73;;
25479;SDS011;13393;49.378;8.686;2023-04-03T00:53:40;5.80;;;2.00;;
25479;SDS011;13393;49.378;8.686;2023-04-03T00:56:08;1.98;;;1.80;;
25479;SDS011;13393;49.378;8.686;2023-04-03T00:58:37;3.65;;;1.67;;
25479;SDS011;13393;49.378;8.686;2023-04-03T01:01:06;2.75;;;1.90;;
25479;SDS011;13393;49.378;8.686;2023-04-03T01:03:33;4.43;;;2.10;;
25479;SDS011;13393;49.378;8.686;2023-04-03T01:06:00;2.95;;;1.60;;
25479;SDS011;13393;49.378;8.686;2023-04-03T01:08:28;3.33;;;2.20;;
25479;SDS011;13393;49.378;8.686;2023-04-03T01:10:54;3.45;;;2.10;;
25479;SDS011;13393;49.378;8.686;2023-04-03T01:13:22;3.38;;;1.92;;
25479;SDS011;13393;49.378;8.686;2023-04-03T01:15:49;3.47;;;1.95;;
25479;SDS011;13393;49.378;8.686;2023-04-03T01:18:16;2.47;;;1.80;;
25479;SDS011;13393;49.378;8.686;2023-04-03T01:20:45;5.13;;;1.80;;
25479;SDS011;13393;49.378;8.686;2023-04-03T01:23:19;4.10;;;1.70;;
25479;SDS011;13393;49.378;8.686;2023-04-03T01:25:51;3.38;;;1.95;;
25479;SDS011;13393;49.378;8.686;2023-04-03T01:28:19;3.95;;;2.05;;
25479;SDS011;13393;49.378;8.686;2023-04-03T01:30:47;6.20;;;1.90;;
25479;SDS011;13393;49.378;8.686;2023-04-03T01:33:16;3.25;;;1.75;;
25479;SDS011;13393;49.378;8.686;2023-04-03T01:35:43;3.88;;;1.95;;
25479;SDS011;13393;49.378;8.686;2023-04-03T01:38:09;2.38;;;1.85;;
25479;SDS011;13393;49.378;8.686;2023-04-03T01:40:36;3.70;;;1.55;;
25479;SDS011;13393;49.378;8.686;2023-04-03T01:43:02;5.10;;;2.25;;
25479;SDS011;13393;49.378;8.686;2023-04-03T01:45:29;1.92;;;1.60;;
25479;SDS011;13393;49.378;8.686;2023-04-03T01:47:56;2.10;;;1.50;;
25479;SDS011;13393;49.378;8.686;2023-04-03T01:50:23;2.63;;;1.65;;
25479;SDS011;13393;49.378;8.686;2023-04-03T01:52:50;2.33;;;1.95;;
25479;SDS011;13393;49.378;8.686;2023-04-03T01:55:16;2.45;;;1.70;;
25479;SDS011;13393;49.378;8.686;2023-04-03T01:57:42;4.00;;;1.58;;
25479;SDS011;13393;49.378;8.686;2023-04-03T02:00:09;3.35;;;1.70;;
25479;SDS011;13393;49.378;8.686;2023-04-03T02:02:36;3.28;;;1.50;;
25479;SDS011;13393;49.378;8.686;2023-04-03T02:05:02;4.50;;;2.00;;
25479;SDS011;13393;49.378;8.686;2023-04-03T02:07:30;4.10;;;2.15;;
25479;SDS011;13393;49.378;8.686;2023-04-03T02:09:56;3.22;;;1.50;;
25479;SDS011;13393;49.378;8.686;2023-04-03T02:12:22;4.00;;;1.90;;
25479;SDS011;13393;49.378;8.686;2023-04-03T02:14:49;5.00;;;1.67;;
25479;SDS011;13393;49.378;8.686;2023-04-03T02:17:15;4.43;;;1.90;;
25479;SDS011;13393;49.378;8.686;2023-04-03T02:19:42;3.00;;;1.73;;
25479;SDS011;13393;49.378;8.686;2023-04-03T02:22:08;2.00;;;1.60;;
25479;SDS011;13393;49.378;8.686;2023-04-03T02:24:36;3.95;;;1.90;;
25479;SDS011;13393;49.378;8.686;2023-04-03T02:27:04;2.92;;;1.73;;
25479;SDS011;13393;49.378;8.686;2023-04-03T02:29:30;2.55;;;1.70;;
25479;SDS011;13393;49.378;8.686;2023-04-03T02:31:56;1.80;;;1.58;;
25479;SDS011;13393;49.378;8.686;2023-04-03T02:34:23;3.40;;;2.00;;
25479;SDS011;13393;49.378;8.686;2023-04-03T02:36:49;3.70;;;1.90;;
25479;SDS011;13393;49.378;8.686;2023-04-03T02:39:15;2.92;;;1.90;;
25479;SDS011;13393;49.378;8.686;2023-04-03T02:41:43;3.45;;;1.83;;
25479;SDS011;13393;49.378;8.686;2023-04-03T02:44:10;5.63;;;1.88;;
25479;SDS011;13393;49.378;8.686;2023-04-03T02:46:36;4.10;;;2.00;;
25479;SDS011;13393;49.378;8.686;2023-04-03T02:49:03;2.70;;;1.50;;
25479;SDS011;13393;49.378;8.686;2023-04-03T02:51:29;3.75;;;1.77;;
25479;SDS011;13393;49.378;8.686;2023-04-03T02:53:56;2.78;;;1.95;;
25479;SDS011;13393;49.378;8.686;2023-04-03T02:56:22;3.40;;;1.85;;
25479;SDS011;13393;49.378;8.686;2023-04-03T02:58:50;2.83;;;1.85;;
25479;SDS011;13393;49.378;8.686;2023-04-03T03:01:16;1.98;;;1.65;;
25479;SDS011;13393;49.378;8.686;2023-04-03T03:03:43;2.60;;;1.75;;
25479;SDS011;13393;49.378;8.686;2023-04-03T03:06:10;2.40;;;1.50;;
25479;SDS011;13393;49.378;8.686;2023-04-03T03:08:37;1.58;;;1.48;;
25479;SDS011;13393;49.378;8.686;2023-04-03T03:11:03;2.50;;;1.77;;
25479;SDS011;13393;49.378;8.686;2023-04-03T03:13:30;2.50;;;1.40;;
25479;SDS011;13393;49.378;8.686;2023-04-03T03:15:57;3.08;;;1.92;;
25479;SDS011;13393;49.378;8.686;2023-04-03T03:18:24;4.93;;;1.83;;
25479;SDS011;13393;49.378;8.686;2023-04-03T03:20:50;2.28;;;1.70;;
25479;SDS011;13393;49.378;8.686;2023-04-03T03:23:17;3.13;;;2.00;;
25479;SDS011;13393;49.378;8.686;2023-04-03T03:25:43;3.60;;;1.88;;
25479;SDS011;13393;49.378;8.686;2023-04-03T03:28:09;2.13;;;1.80;;
25479;SDS011;13393;49.378;8.686;2023-04-03T03:30:36;2.45;;;1.50;;
25479;SDS011;13393;49.378;8.686;2023-04-03T03:33:04;2.97;;;1.77;;
25479;SDS011;13393;49.378;8.686;2023-04-03T03:35:30;1.95;;;1.75;;
25479;SDS011;13393;49.378;8.686;2023-04-03T03:37:56;3.92;;;2.10;;
25479;SDS011;13393;49.378;8.686;2023-04-03T03:40:23;3.35;;;1.52;;
25479;SDS011;13393;49.378;8.686;2023-04-03T03:42:49;2.58;;;1.90;;
25479;SDS011;13393;49.378;8.686;2023-04-03T03:45:15;3.58;;;1.98;;
25479;SDS011;13393;49.378;8.686;2023-04-03T03:47:42;3.30;;;1.88;;
25479;SDS011;13393;49.378;8.686;2023-04-03T03:50:09;1.90;;;1.65;;
25479;SDS011;13393;49.378;8.686;2023-04-03T03:52:36;4.78;;;1.85;;
25479;SDS011;13393;49.378;8.686;2023-04-03T03:55:04;4.35;;;1.80;;
25479;SDS011;13393;49.378;8.686;2023-04-03T03:57:30;1.52;;;1.38;;
25479;SDS011;13393;49.378;8.686;2023-04-03T03:59:57;3.10;;;1.70;;
25479;SDS011;13393;49.378;8.686;2023-04-03T04:02:23;3.47;;;1.98;;
25479;SDS011;13393;49.378;8.686;2023-04-03T04:04:49;3.40;;;2.22;;
25479;SDS011;13393;49.378;8.686;2023-04-03T04:07:17;3.30;;;1.77;;
25479;SDS011;13393;49.378;8.686;2023-04-03T04:09:43;2.75;;;2.10;;
25479;SDS011;13393;49.378;8.686;2023-04-03T04:12:10;3.60;;;1.77;;
25479;SDS011;13393;49.378;8.686;2023-04-03T04:14:36;3.92;;;1.50;;
25479;SDS011;13393;49.378;8.686;2023-04-03T04:17:02;3.08;;;1.70;;
25479;SDS011;13393;49.378;8.686;2023-04-03T04:19:29;3.97;;;1.60;;
25479;SDS011;13393;49.378;8.686;2023-04-03T04:21:55;2.95;;;1.90;;
25479;SDS011;13393;49.378;8.686;2023-04-03T04:24:23;3.13;;;1.85;;
25479;SDS011;13393;49.378;8.686;2023-04-03T04:26:49;3.08;;;1.98;;
25479;SDS011;13393;49.378;8.686;2023-04-03T04:29:15;1.60;;;1.50;;
25479;SDS011;13393;49.378;8.686;2023-04-03T04:31:42;3.10;;;1.83;;
25479;SDS011;13393;49.378;8.686;2023-04-03T04:34:08;3.60;;;1.50;;
25479;SDS011;13393;49.378;8.686;2023-04-03T04:36:34;3.58;;;1.85;;
25479;SDS011;13393;49.378;8.686;2023-04-03T04:39:01;4.00;;;2.10;;
25479;SDS011;13393;49.378;8.686;2023-04-03T04:41:28;2.13;;;1.65;;
25479;SDS011;13393;49.378;8.686;2023-04-03T04:43:55;2.30;;;1.60;;
25479;SDS011;13393;49.378;8.686;2023-04-03T04:46:21;2.63;;;1.70;;
25479;SDS011;13393;49.378;8.686;2023-04-03T04:48:47;2.70;;;1.95;;
25479;SDS011;13393;49.378;8.686;2023-04-03T04:51:14;4.80;;;2.10;;
25479;SDS011;13393;49.378;8.686;2023-04-03T04:53:41;3.30;;;1.65;;
25479;SDS011;13393;49.378;8.686;2023-04-03T04:56:07;2.80;;;2.47;;
25479;SDS011;13393;49.378;8.686;2023-04-03T04:58:35;6.63;;;2.20;;
25479;SDS011;13393;49.378;8.686;2023-04-03T05:01:01;5.20;;;2.08;;
25479;SDS011;13393;49.378;8.686;2023-04-03T05:03:28;3.40;;;1.95;;
25479;SDS011;13393;49.378;8.686;2023-04-03T05:05:54;2.38;;;1.60;;
25479;SDS011;13393;49.378;8.686;2023-04-03T05:08:21;4.18;;;1.98;;
25479;SDS011;13393;49.378;8.686;2023-04-03T05:10:47;4.07;;;2.40;;
25479;SDS011;13393;49.378;8.686;2023-04-03T05:13:14;4.25;;;2.22;;
25479;SDS011;13393;49.378;8.686;2023-04-03T05:15:42;3.88;;;2.33;;
25479;SDS011;13393;49.378;8.686;2023-04-03T05:18:08;2.72;;;1.77;;
25479;SDS011;13393;49.378;8.686;2023-04-03T05:20:34;2.35;;;1.58;;
25479;SDS011;13393;49.378;8.686;2023-04-03T05:23:02;3.40;;;2.00;;
25479;SDS011;13393;49.378;8.686;2023-04-03T05:25:28;3.90;;;2.17;;
25479;SDS011;13393;49.378;8.686;2023-04-03T05:27:54;4.38;;;2.25;;
25479;SDS011;13393;49.378;8.686;2023-04-03T05:30:21;5.72;;;1.90;;
25479;SDS011;13393;49.378;8.686;2023-04-03T05:32:48;3.45;;;1.98;;
25479;SDS011;13393;49.378;8.686;2023-04-03T05:35:15;4.07;;;2.20;;
25479;SDS011;13393;49.378;8.686;2023-04-03T05:37:41;3.15;;;2.00;;
25479;SDS011;13393;49.378;8.686;2023-04-03T05:40:08;2.92;;;2.22;;
25479;SDS011;13393;49.378;8.686;2023-04-03T05:42:34;4.45;;;2.40;;
25479;SDS011;13393;49.378;8.686;2023-04-03T05:45:01;5.28;;;2.33;;
25479;SDS011;13393;49.378;8.686;2023-04-03T05:47:27;6.10;;;2.35;;
25479;SDS011;13393;49.378;8.686;2023-04-03T05:49:55;5.30;;;2.47;;
25479;SDS011;13393;49.378;8.686;2023-04-03T05:52:22;5.18;;;2.65;;
25479;SDS011;13393;49.378;8.686;2023-04-03T05:54:49;8.43;;;2.70;;
25479;SDS011;13393;49.378;8.686;2023-04-03T05:57:15;5.20;;;2.80;;
25479;SDS011;13393;49.378;8.686;2023-04-03T05:59:42;4.03;;;2.60;;
25479;SDS011;13393;49.378;8.686;2023-04-03T06:02:09;6.95;;;2.80;;
25479;SDS011;13393;49.378;8.686;2023-04-03T06:04:36;3.78;;;2.53;;
25479;SDS011;13393;49.378;8.686;2023-04-03T06:07:04;6.30;;;2.53;;
25479;SDS011;13393;49.378;8.686;2023-04-03T06:09:31;4.55;;;2.45;;
25479;SDS011;13393;49.378;8.686;2023-04-03T06:11:57;7.05;;;2.92;;
25479;SDS011;13393;49.378;8.686;2023-04-03T06:14:25;2.72;;;2.45;;
25479;SDS011;13393;49.378;8.686;2023-04-03T06:16:51;7.50;;;2.67;;
25479;SDS011;13393;49.378;8.686;2023-04-03T06:19:17;4.75;;;2.90;;
25479;SDS011;13393;49.378;8.686;2023-04-03T06:21:44;4.22;;;2.20;;
25479;SDS011;13393;49.378;8.686;2023-04-03T06:24:12;4.13;;;2.75;;
25479;SDS011;13393;49.378;8.686;2023-04-03T06:26:40;4.82;;;3.15;;
25479;SDS011;13393;49.378;8.686;2023-04-03T06:29:06;5.13;;;2.97;;
25479;SDS011;13393;49.378;8.686;2023-04-03T06:31:32;4.30;;;2.85;;
25479;SDS011;13393;49.378;8.686;2023-04-03T06:33:59;5.32;;;2.80;;
25479;SDS011;13393;49.378;8.686;2023-04-03T06:36:25;4.28;;;2.45;;
25479;SDS011;13393;49.378;8.686;2023-04-03T06:38:51;4.47;;;2.53;;
25479;SDS011;13393;49.378;8.686;2023-04-03T06:41:19;7.95;;;2.53;;
25479;SDS011;13393;49.378;8.686;2023-04-03T06:43:46;3.42;;;2.30;;
25479;SDS011;13393;49.378;8.686;2023-04-03T06:46:13;5.13;;;2.45;;
25479;SDS011;13393;49.378;8.686;2023-04-03T06:48:40;10.43;;;3.90;;
25479;SDS011;13393;49.378;8.686;2023-04-03T06:51:08;4.20;;;2.42;;
25479;SDS011;13393;49.378;8.686;2023-04-03T06:53:34;8.00;;;2.75;;
25479;SDS011;13393;49.378;8.686;2023-04-03T06:56:01;9.30;;;2.80;;
25479;SDS011;13393;49.378;8.686;2023-04-03T06:58:28;3.70;;;2.42;;
25479;SDS011;13393;49.378;8.686;2023-04-03T07:00:55;5.47;;;2.53;;
25479;SDS011;13393;49.378;8.686;2023-04-03T07:03:21;5.13;;;2.33;;
25479;SDS011;13393;49.378;8.686;2023-04-03T07:05:48;4.32;;;2.42;;
25479;SDS011;13393;49.378;8.686;2023-04-03T07:08:15;5.47;;;2.03;;
25479;SDS011;13393;49.378;8.686;2023-04-03T07:10:41;6.80;;;2.50;;
25479;SDS011;13393;49.378;8.686;2023-04-03T07:13:07;3.78;;;2.15;;
25479;SDS011;13393;49.378;8.686;2023-04-03T07:15:35;6.85;;;2.30;;
25479;SDS011;13393;49.378;8.686;2023-04-03T07:18:02;4.47;;;2.10;;
25479;SDS011;13393;49.378;8.686;2023-04-03T07:20:29;2.83;;;1.80;;
25479;SDS011;13393;49.378;8.686;2023-04-03T07:22:56;5.15;;;2.05;;
25479;SDS011;13393;49.378;8.686;2023-04-03T07:25:22;7.38;;;2.78;;
25479;SDS011;13393;49.378;8.686;2023-04-03T07:27:48;6.53;;;2.13;;
25479;SDS011;13393;49.378;8.686;2023-04-03T07:30:15;6.20;;;2.22;;
25479;SDS011;13393;49.378;8.686;2023-04-03T07:32:43;4.65;;;1.90;;
25479;SDS011;13393;49.378;8.686;2023-04-03T07:35:09;5.60;;;2.60;;
25479;SDS011;13393;49.378;8.686;2023-04-03T07:37:35;3.53;;;1.80;;
25479;SDS011;13393;49.378;8.686;2023-04-03T07:40:02;6.35;;;1.95;;
25479;SDS011;13393;49.378;8.686;2023-04-03T07:42:29;6.93;;;2.00;;
25479;SDS011;13393;49.378;8.686;2023-04-03T07:44:56;4.75;;;2.05;;
25479;SDS011;13393;49.378;8.686;2023-04-03T07:47:23;4.97;;;1.85;;
25479;SDS011;13393;49.378;8.686;2023-04-03T07:49:50;3.45;;;1.88;;
25479;SDS011;13393;49.378;8.686;2023-04-03T07:52:17;4.30;;;2.03;;
25479;SDS011;13393;49.378;8.686;2023-04-03T07:54:43;5.43;;;2.22;;
25479;SDS011;13393;49.378;8.686;2023-04-03T07:57:09;5.93;;;2.03;;
25479;SDS011;13393;49.378;8.686;2023-04-03T07:59:36;6.05;;;1.80;;
25479;SDS011;13393;49.378;8.686;2023-04-03T08:02:02;4.35;;;2.00;;
25479;SDS011;13393;49.378;8.686;2023-04-03T08:04:30;3.53;;;1.80;;
25479;SDS011;13393;49.378;8.686;2023-04-03T08:06:57;4.63;;;1.80;;
25479;SDS011;13393;49.378;8.686;2023-04-03T08:09:24;2.13;;;1.52;;
25479;SDS011;13393;49.378;8.686;2023-04-03T08:11:50;3.65;;;1.90;;
25479;SDS011;13393;49.378;8.686;2023-04-03T08:14:18;2.80;;;1.58;;
25479;SDS011;13393;49.378;8.686;2023-04-03T08:16:46;4.57;;;1.60;;
25479;SDS011;13393;49.378;8.686;2023-04-03T08:19:13;2.45;;;1.40;;
25479;SDS011;13393;49.378;8.686;2023-04-03T08:21:40;4.70;;;1.60;;
25479;SDS011;13393;49.378;8.686;2023-04-03T08:24:08;4.55;;;1.70;;
25479;SDS011;13393;49.378;8.686;2023-04-03T08:26:35;4.10;;;1.60;;
25479;SDS011;13393;49.378;8.686;2023-04-03T08:29:01;4.43;;;1.65;;
25479;SDS011;13393;49.378;8.686;2023-04-03T08:31:28;3.70;;;1.77;;
25479;SDS011;13393;49.378;8.686;2023-04-03T08:33:54;4.47;;;1.80;;
25479;SDS011;13393;49.378;8.686;2023-04-03T08:36:21;3.35;;;1.40;;
25479;SDS011;13393;49.378;8.686;2023-04-03T08:38:47;2.85;;;1.35;;
25479;SDS011;13393;49.378;8.686;2023-04-03T08:41:16;2.65;;;1.42;;
25479;SDS011;13393;49.378;8.686;2023-04-03T08:46:31;3.90;;;1.75;;
25479;SDS011;13393;49.378;8.686;2023-04-03T08:48:58;4.57;;;1.50;;
25479;SDS011;13393;49.378;8.686;2023-04-03T08:51:25;4.93;;;1.48;;
25479;SDS011;13393;49.378;8.686;2023-04-03T08:53:53;3.92;;;1.48;;
25479;SDS011;13393;49.378;8.686;2023-04-03T08:56:23;3.00;;;1.58;;
25479;SDS011;13393;49.378;8.686;2023-04-03T08:58:51;3.22;;;1.38;;
25479;SDS011;13393;49.378;8.686;2023-04-03T09:01:20;5.03;;;1.70;;
25479;SDS011;13393;49.378;8.686;2023-04-03T09:03:47;3.75;;;1.40;;
25479;SDS011;13393;49.378;8.686;2023-04-03T09:06:14;4.97;;;1.60;;
25479;SDS011;13393;49.378;8.686;2023-04-03T09:08:43;1.60;;;1.33;;
25479;SDS011;13393;49.378;8.686;2023-04-03T09:11:13;2.75;;;1.30;;
25479;SDS011;13393;49.378;8.686;2023-04-03T09:13:46;4.18;;;1.58;;
25479;SDS011;13393;49.378;8.686;2023-04-03T09:16:18;2.05;;;1.20;;
25479;SDS011;13393;49.378;8.686;2023-04-03T09:18:47;3.83;;;1.55;;
25479;SDS011;13393;49.378;8.686;2023-04-03T09:21:16;2.28;;;1.20;;
25479;SDS011;13393;49.378;8.686;2023-04-03T09:23:46;2.65;;;1.48;;
25479;SDS011;13393;49.378;8.686;2023-04-03T09:26:14;3.38;;;1.48;;
25479;SDS011;13393;49.378;8.686;2023-04-03T09:28:42;2.67;;;1.40;;
25479;SDS011;13393;49.378;8.686;2023-04-03T09:31:14;2.67;;;1.63;;
25479;SDS011;13393;49.378;8.686;2023-04-03T09:33:42;3.85;;;1.40;;
25479;SDS011;13393;49.378;8.686;2023-04-03T09:36:09;3.00;;;1.38;;
25479;SDS011;13393;49.378;8.686;2023-04-03T09:38:36;3.30;;;1.45;;
25479;SDS011;13393;49.378;8.686;2023-04-03T09:41:04;1.75;;;1.42;;
25479;SDS011;13393;49.378;8.686;2023-04-03T09:43:31;4.90;;;1.33;;
25479;SDS011;13393;49.378;8.686;2023-04-03T09:48:40;1.58;;;1.20;;
25479;SDS011;13393;49.378;8.686;2023-04-03T09:51:16;2.50;;;1.30;;
25479;SDS011;13393;49.378;8.686;2023-04-03T09:53:43;2.17;;;1.40;;
25479;SDS011;13393;49.378;8.686;2023-04-03T09:56:18;5.28;;;1.90;;
25479;SDS011;13393;49.378;8.686;2023-04-03T09:58:47;3.40;;;1.30;;
25479;SDS011;13393;49.378;8.686;2023-04-03T10:01:20;4.88;;;1.40;;
25479;SDS011;13393;49.378;8.686;2023-04-03T10:03:48;1.45;;;1.08;;
25479;SDS011;13393;49.378;8.686;2023-04-03T10:06:29;3.22;;;1.30;;
25479;SDS011;13393;49.378;8.686;2023-04-03T10:08:58;4.43;;;1.67;;
25479;SDS011;13393;49.378;8.686;2023-04-03T10:11:25;2.67;;;1.38;;
25479;SDS011;13393;49.378;8.686;2023-04-03T10:13:52;4.40;;;1.40;;
25479;SDS011;13393;49.378;8.686;2023-04-03T10:16:20;3.63;;;1.73;;
25479;SDS011;13393;49.378;8.686;2023-04-03T10:18:51;1.48;;;1.27;;
25479;SDS011;13393;49.378;8.686;2023-04-03T10:21:23;5.38;;;1.70;;
25479;SDS011;13393;49.378;8.686;2023-04-03T10:23:54;1.20;;;1.10;;
25479;SDS011;13393;49.378;8.686;2023-04-03T10:26:23;2.95;;;1.42;;
25479;SDS011;13393;49.378;8.686;2023-04-03T10:28:56;2.58;;;1.25;;
25479;SDS011;13393;49.378;8.686;2023-04-03T10:31:25;2.13;;;1.38;;
25479;SDS011;13393;49.378;8.686;2023-04-03T10:33:58;1.90;;;1.30;;
25479;SDS011;13393;49.378;8.686;2023-04-03T10:36:29;1.42;;;1.00;;
25479;SDS011;13393;49.378;8.686;2023-04-03T10:39:01;3.15;;;1.40;;
25479;SDS011;13393;49.378;8.686;2023-04-03T10:41:31;2.53;;;1.30;;
25479;SDS011;13393;49.378;8.686;2023-04-03T10:44:02;3.22;;;1.55;;
25479;SDS011;13393;49.378;8.686;2023-04-03T10:46:34;1.98;;;1.27;;
25479;SDS011;13393;49.378;8.686;2023-04-03T10:49:08;1.77;;;1.20;;
25479;SDS011;13393;49.378;8.686;2023-04-03T10:51:37;4.00;;;1.40;;
25479;SDS011;13393;49.378;8.686;2023-04-03T10:54:05;3.50;;;1.38;;
25479;SDS011;13393;49.378;8.686;2023-04-03T10:56:35;2.88;;;1.42;;
25479;SDS011;13393;49.378;8.686;2023-04-03T10:59:07;4.65;;;1.52;;
25479;SDS011;13393;49.378;8.686;2023-04-03T11:01:37;3.00;;;1.45;;
25479;SDS011;13393;49.378;8.686;2023-04-03T11:04:06;3.45;;;1.50;;
25479;SDS011;13393;49.378;8.686;2023-04-03T11:06:35;1.55;;;1.23;;
25479;SDS011;13393;49.378;8.686;2023-04-03T11:09:03;3.42;;;1.40;;
25479;SDS011;13393;49.378;8.686;2023-04-03T11:11:32;5.95;;;1.77;;
25479;SDS011;13393;49.378;8.686;2023-04-03T11:14:01;2.85;;;1.60;;
25479;SDS011;13393;49.378;8.686;2023-04-03T11:16:30;2.75;;;1.50;;
25479;SDS011;13393;49.378;8.686;2023-04-03T11:18:59;3.75;;;1.10;;
25479;SDS011;13393;49.378;8.686;2023-04-03T11:21:28;3.13;;;1.33;;
25479;SDS011;13393;49.378;8.686;2023-04-03T11:23:56;3.55;;;1.30;;
25479;SDS011;13393;49.378;8.686;2023-04-03T11:26:24;2.42;;;1.25;;
25479;SDS011;13393;49.378;8.686;2023-04-03T11:28:53;3.65;;;1.58;;
25479;SDS011;13393;49.378;8.686;2023-04-03T11:31:25;2.72;;;1.45;;
25479;SDS011;13393;49.378;8.686;2023-04-03T11:33:58;2.10;;;1.40;;
25479;SDS011;13393;49.378;8.686;2023-04-03T11:36:28;2.50;;;1.40;;
25479;SDS011;13393;49.378;8.686;2023-04-03T11:38:57;3.47;;;1.48;;
25479;SDS011;13393;49.378;8.686;2023-04-03T11:41:25;2.75;;;1.48;;
25479;SDS011;13393;49.378;8.686;2023-04-03T11:43:55;2.47;;;1.50;;
25479;SDS011;13393;49.378;8.686;2023-04-03T11:46:22;4.63;;;1.52;;
25479;SDS011;13393;49.378;8.686;2023-04-03T11:48:51;3.05;;;1.48;;
25479;SDS011;13393;49.378;8.686;2023-04-03T11:51:39;2.55;;;1.40;;
25479;SDS011;13393;49.378;8.686;2023-04-03T11:56:51;5.15;;;1.48;;
25479;SDS011;13393;49.378;8.686;2023-04-03T11:59:24;2.13;;;1.20;;
25479;SDS011;13393;49.378;8.686;2023-04-03T12:01:51;3.85;;;1.65;;
25479;SDS011;13393;49.378;8.686;2023-04-03T12:04:18;3.38;;;1.58;;
25479;SDS011;13393;49.378;8.686;2023-04-03T12:09:28;1.88;;;1.52;;
25479;SDS011;13393;49.378;8.686;2023-04-03T12:11:56;2.97;;;1.60;;
25479;SDS011;13393;49.378;8.686;2023-04-03T12:14:23;5.97;;;1.55;;
25479;SDS011;13393;49.378;8.686;2023-04-03T12:16:51;3.50;;;1.33;;
25479;SDS011;13393;49.378;8.686;2023-04-03T12:19:29;2.90;;;1.60;;
25479;SDS011;13393;49.378;8.686;2023-04-03T12:22:09;2.53;;;1.40;;
25479;SDS011;13393;49.378;8.686;2023-04-03T12:24:38;2.15;;;1.50;;
25479;SDS011;13393;49.378;8.686;2023-04-03T12:29:47;4.43;;;1.60;;
25479;SDS011;13393;49.378;8.686;2023-04-03T12:32:19;2.80;;;1.50;;
25479;SDS011;13393;49.378;8.686;2023-04-03T12:34:56;3.63;;;1.60;;
25479;SDS011;13393;49.378;8.686;2023-04-03T12:37:34;2.72;;;1.52;;
25479;SDS011;13393;49.378;8.686;2023-04-03T12:40:09;5.07;;;1.75;;
25479;SDS011;13393;49.378;8.686;2023-04-03T12:42:48;4.20;;;1.52;;
25479;SDS011;13393;49.378;8.686;2023-04-03T12:45:21;1.85;;;1.45;;
25479;SDS011;13393;49.378;8.686;2023-04-03T12:47:48;3.60;;;1.48;;
25479;SDS011;13393;49.378;8.686;2023-04-03T12:50:20;1.55;;;1.10;;
25479;SDS011;13393;49.378;8.686;2023-04-03T12:52:50;2.65;;;1.33;;
25479;SDS011;13393;49.378;8.686;2023-04-03T12:55:19;2.70;;;1.40;;
25479;SDS011;13393;49.378;8.686;2023-04-03T12:57:46;4.22;;;1.73;;
25479;SDS011;13393;49.378;8.686;2023-04-03T13:00:20;2.80;;;1.70;;
25479;SDS011;13393;49.378;8.686;2023-04-03T13:02:47;2.42;;;1.48;;
25479;SDS011;13393;49.378;8.686;2023-04-03T13:05:15;2.38;;;1.52;;
25479;SDS011;13393;49.378;8.686;2023-04-03T13:07:42;2.00;;;1.55;;
25479;SDS011;13393;49.378;8.686;2023-04-03T13:10:13;3.50;;;1.52;;
25479;SDS011;13393;49.378;8.686;2023-04-03T13:12:46;4.20;;;1.95;;
25479;SDS011;13393;49.378;8.686;2023-04-03T13:15:15;3.20;;;1.90;;
25479;SDS011;13393;49.378;8.686;2023-04-03T13:17:42;2.72;;;1.58;;
25479;SDS011;13393;49.378;8.686;2023-04-03T13:20:09;3.15;;;1.50;;
25479;SDS011;13393;49.378;8.686;2023-04-03T13:22:38;3.30;;;1.42;;
25479;SDS011;13393;49.378;8.686;2023-04-03T13:25:09;3.10;;;2.05;;
25479;SDS011;13393;49.378;8.686;2023-04-03T13:27:37;4.80;;;1.80;;
25479;SDS011;13393;49.378;8.686;2023-04-03T13:30:06;2.83;;;1.77;;
25479;SDS011;13393;49.378;8.686;2023-04-03T13:32:33;4.45;;;1.80;;
25479;SDS011;13393;49.378;8.686;2023-04-03T13:35:00;2.58;;;1.30;;
25479;SDS011;13393;49.378;8.686;2023-04-03T13:37:30;3.22;;;1.77;;
25479;SDS011;13393;49.378;8.686;2023-04-03T13:39:57;3.95;;;1.40;;
25479;SDS011;13393;49.378;8.686;2023-04-03T13:42:25;1.95;;;1.15;;
25479;SDS011;13393;49.378;8.686;2023-04-03T13:47:46;2.15;;;1.45;;
25479;SDS011;13393;49.378;8.686;2023-04-03T13:50:14;4.47;;;1.77;;
25479;SDS011;13393;49.378;8.686;2023-04-03T13:52:41;1.55;;;1.23;;
25479;SDS011;13393;49.378;8.686;2023-04-03T13:55:15;4.07;;;1.88;;
25479;SDS011;13393;49.378;8.686;2023-04-03T13:57:48;2.40;;;1.85;;
25479;SDS011;13393;49.378;8.686;2023-04-03T14:00:22;3.70;;;1.77;;
25479;SDS011;13393;49.378;8.686;2023-04-03T14:02:55;3.85;;;2.40;;
25479;SDS011;13393;49.378;8.686;2023-04-03T14:05:22;3.85;;;1.90;;
25479;SDS011;13393;49.378;8.686;2023-04-03T14:07:50;4.10;;;1.58;;
25479;SDS011;13393;49.378;8.686;2023-04-03T14:10:16;2.72;;;1.55;;
25479;SDS011;13393;49.378;8.686;2023-04-03T14:12:43;2.80;;;1.50;;
25479;SDS011;13393;49.378;8.686;2023-04-03T14:15:12;2.47;;;1.40;;
25479;SDS011;13393;49.378;8.686;2023-04-03T14:17:41;2.58;;;1.95;;
25479;SDS011;13393;49.378;8.686;2023-04-03T14:20:13;4.38;;;1.60;;
25479;SDS011;13393;49.378;8.686;2023-04-03T14:22:40;4.22;;;1.90;;
25479;SDS011;13393;49.378;8.686;2023-04-03T14:25:07;4.30;;;1.48;;
25479;SDS011;13393;49.378;8.686;2023-04-03T14:27:35;4.22;;;1.85;;
25479;SDS011;13393;49.378;8.686;2023-04-03T14:30:03;2.15;;;1.40;;
25479;SDS011;13393;49.378;8.686;2023-04-03T14:32:29;2.97;;;1.33;;
25479;SDS011;13393;49.378;8.686;2023-04-03T14:34:56;4.40;;;1.75;;
25479;SDS011;13393;49.378;8.686;2023-04-03T14:37:26;1.35;;;1.25;;
25479;SDS011;13393;49.378;8.686;2023-04-03T14:39:53;2.15;;;1.10;;
25479;SDS011;13393;49.378;8.686;2023-04-03T14:42:20;2.92;;;1.60;;
25479;SDS011;13393;49.378;8.686;2023-04-03T14:44:47;3.28;;;1.38;;
25479;SDS011;13393;49.378;8.686;2023-04-03T14:47:14;5.85;;;1.75;;
25479;SDS011;13393;49.378;8.686;2023-04-03T14:49:41;3.03;;;1.48;;
25479;SDS011;13393;49.378;8.686;2023-04-03T14:52:09;3.55;;;1.48;;
25479;SDS011;13393;49.378;8.686;2023-04-03T14:54:43;1.75;;;1.15;;
25479;SDS011;13393;49.378;8.686;2023-04-03T14:57:10;1.98;;;1.30;;
25479;SDS011;13393;49.378;8.686;2023-04-03T14:59:37;2.65;;;1.77;;
25479;SDS011;13393;49.378;8.686;2023-04-03T15:02:08;2.30;;;1.75;;
25479;SDS011;13393;49.378;8.686;2023-04-03T15:04:37;3.50;;;1.67;;
25479;SDS011;13393;49.378;8.686;2023-04-03T15:07:03;2.95;;;1.35;;
25479;SDS011;13393;49.378;8.686;2023-04-03T15:09:29;1.75;;;1.10;;